Etusivu
METAR-TAF:

METAR-TAF

Lentoasemat :

Shepherd Bay, Nunavut, Kanada

Leveyspiiri: 68-49N, Pituuspiiri: 093-26W, korkeus merenpinnasta: 51 m

Tämänhetkinen sää

Tämä raportti tehtiin 43 minuuttia sitten, kello 16.00 UTC
Tuuli 11 kn idästä/kaakosta, vaihdellen idän/kaakon ja etelän välillä
Lämpötila -36°C
Kosteus 60%
Ilmanpaine 1033 hPa

METAR: CYUS 251600Z AUTO 12011KT 110V190 ////SM //// NCD M36/M41 A3051

Aika: 09:43 (16:43 UTC)


TAF: puuttuu

Säähavainnot ja -ennusteet yli 4000 lentoasemalta (METAR- ja TAF-raportit).

Käytössä olevat sääasemat on merkitty karttaan keltaisilla ja punaisilla pisteillä.

Aseta hiiri pisteen päälle nähdäksesi sääaseman nimen.

Klikkaa sitten nähdäksesi säähavainnot ja -ennusteet.

Kartan vaihtaminen: klikkaa mustalla rastilla varustettuja vihreitä pisteitä, niin voit zoomata sisään; viivalla varustettua vihreää pistettä, niin voit zoomata ulos tai vihreitä nuolia, niin pääset viereisille kartoille.


METAR-TAF: